sensor_id;sensor_type;location;lat;lon;timestamp;pressure;altitude;pressure_sealevel;temperature;humidity
13314;BME280;6725;48.112;11.604;2023-05-11T00:02:11;93786.88;;;9.54;100.00
13314;BME280;6725;48.112;11.604;2023-05-11T00:04:36;93781.00;;;9.55;100.00
13314;BME280;6725;48.112;11.604;2023-05-11T00:07:01;93772.19;;;9.51;100.00
13314;BME280;6725;48.112;11.604;2023-05-11T00:09:27;93778.97;;;9.47;100.00
13314;BME280;6725;48.112;11.604;2023-05-11T00:11:52;93779.47;;;9.42;100.00
13314;BME280;6725;48.112;11.604;2023-05-11T00:14:18;93783.28;;;9.44;100.00
13314;BME280;6725;48.112;11.604;2023-05-11T00:16:43;93771.88;;;9.49;100.00
13314;BME280;6725;48.112;11.604;2023-05-11T00:19:09;93769.47;;;9.51;100.00
13314;BME280;6725;48.112;11.604;2023-05-11T00:21:34;93772.53;;;9.53;100.00
13314;BME280;6725;48.112;11.604;2023-05-11T00:24:00;93775.69;;;9.52;100.00
13314;BME280;6725;48.112;11.604;2023-05-11T00:26:26;93776.13;;;9.50;100.00
13314;BME280;6725;48.112;11.604;2023-05-11T00:28:51;93769.47;;;9.51;100.00
13314;BME280;6725;48.112;11.604;2023-05-11T00:31:17;93766.41;;;9.49;100.00
13314;BME280;6725;48.112;11.604;2023-05-11T00:33:42;93770.00;;;9.46;100.00
13314;BME280;6725;48.112;11.604;2023-05-11T00:36:07;93768.81;;;9.47;100.00
13314;BME280;6725;48.112;11.604;2023-05-11T00:38:33;93775.03;;;9.48;100.00
13314;BME280;6725;48.112;11.604;2023-05-11T00:41:00;93778.19;;;9.46;100.00
13314;BME280;6725;48.112;11.604;2023-05-11T00:43:26;93768.81;;;9.47;100.00
13314;BME280;6725;48.112;11.604;2023-05-11T00:45:51;93768.06;;;9.47;100.00
13314;BME280;6725;48.112;11.604;2023-05-11T00:48:17;93761.72;;;9.50;100.00
13314;BME280;6725;48.112;11.604;2023-05-11T00:50:43;93766.41;;;9.49;100.00
13314;BME280;6725;48.112;11.604;2023-05-11T00:53:08;93766.94;;;9.44;100.00
13314;BME280;6725;48.112;11.604;2023-05-11T00:55:35;93753.97;;;9.48;100.00
13314;BME280;6725;48.112;11.604;2023-05-11T00:58:01;93760.97;;;9.49;100.00
13314;BME280;6725;48.112;11.604;2023-05-11T01:00:29;93756.38;;;9.46;100.00
13314;BME280;6725;48.112;11.604;2023-05-11T01:02:55;93768.81;;;9.47;100.00
13314;BME280;6725;48.112;11.604;2023-05-11T01:05:20;93755.53;;;9.49;100.00
13314;BME280;6725;48.112;11.604;2023-05-11T01:08:05;93753.97;;;9.48;100.00
13314;BME280;6725;48.112;11.604;2023-05-11T01:11:16;93756.25;;;9.50;100.00
13314;BME280;6725;48.112;11.604;2023-05-11T01:15:55;93753.97;;;9.48;100.00
13314;BME280;6725;48.112;11.604;2023-05-11T01:18:30;93753.09;;;9.51;100.00
13314;BME280;6725;48.112;11.604;2023-05-11T01:20:59;93755.31;;;9.56;100.00
13314;BME280;6725;48.112;11.604;2023-05-11T01:23:42;93753.75;;;9.55;100.00
13314;BME280;6725;48.112;11.604;2023-05-11T01:26:29;93746.69;;;9.58;100.00
13314;BME280;6725;48.112;11.604;2023-05-11T01:31:57;93742.63;;;9.62;100.00
13314;BME280;6725;48.112;11.604;2023-05-11T01:34:26;93745.69;;;9.64;100.00
13314;BME280;6725;48.112;11.604;2023-05-11T01:37:22;93742.00;;;9.58;100.00
13314;BME280;6725;48.112;11.604;2023-05-11T01:39:51;93747.13;;;9.56;100.00
13314;BME280;6725;48.112;11.604;2023-05-11T01:42:31;93741.69;;;9.56;100.00
13314;BME280;6725;48.112;11.604;2023-05-11T01:45:00;93733.50;;;9.56;100.00
13314;BME280;6725;48.112;11.604;2023-05-11T01:47:29;93738.06;;;9.59;100.00
13314;BME280;6725;48.112;11.604;2023-05-11T01:49:55;93729.00;;;9.50;100.00
13314;BME280;6725;48.112;11.604;2023-05-11T01:52:23;93732.84;;;9.52;100.00
13314;BME280;6725;48.112;11.604;2023-05-11T01:54:51;93729.00;;;9.50;100.00
13314;BME280;6725;48.112;11.604;2023-05-11T01:57:17;93736.09;;;9.47;100.00
13314;BME280;6725;48.112;11.604;2023-05-11T01:59:44;93734.59;;;9.46;100.00
13314;BME280;6725;48.112;11.604;2023-05-11T02:02:12;93738.31;;;9.52;100.00
13314;BME280;6725;48.112;11.604;2023-05-11T02:04:39;93742.22;;;9.51;100.00
13314;BME280;6725;48.112;11.604;2023-05-11T02:07:06;93732.50;;;9.50;100.00
13314;BME280;6725;48.112;11.604;2023-05-11T02:09:33;93725.13;;;9.51;100.00
13314;BME280;6725;48.112;11.604;2023-05-11T02:12:00;93730.44;;;9.54;100.00
13314;BME280;6725;48.112;11.604;2023-05-11T02:14:28;93730.34;;;9.58;100.00
13314;BME280;6725;48.112;11.604;2023-05-11T02:16:58;93729.78;;;9.50;100.00
13314;BME280;6725;48.112;11.604;2023-05-11T02:19:25;93720.31;;;9.55;100.00
13314;BME280;6725;48.112;11.604;2023-05-11T02:21:52;93731.66;;;9.53;100.00
13314;BME280;6725;48.112;11.604;2023-05-11T02:24:19;93727.06;;;9.50;100.00
13314;BME280;6725;48.112;11.604;2023-05-11T02:26:45;93728.94;;;9.53;100.00
13314;BME280;6725;48.112;11.604;2023-05-11T02:29:11;93731.31;;;9.51;100.00
13314;BME280;6725;48.112;11.604;2023-05-11T02:31:41;93727.41;;;9.52;100.00
13314;BME280;6725;48.112;11.604;2023-05-11T02:34:16;93725.22;;;9.47;100.00
13314;BME280;6725;48.112;11.604;2023-05-11T02:36:47;93727.63;;;9.45;100.00
13314;BME280;6725;48.112;11.604;2023-05-11T02:39:13;93724.56;;;9.43;100.00
13314;BME280;6725;48.112;11.604;2023-05-11T02:41:43;93724.47;;;9.47;100.00
13314;BME280;6725;48.112;11.604;2023-05-11T02:44:13;93729.91;;;9.47;100.00
13314;BME280;6725;48.112;11.604;2023-05-11T02:46:40;93721.19;;;9.39;100.00
13314;BME280;6725;48.112;11.604;2023-05-11T02:49:08;93724.34;;;9.38;100.00
13314;BME280;6725;48.112;11.604;2023-05-11T02:51:38;93726.28;;;9.37;100.00
13314;BME280;6725;48.112;11.604;2023-05-11T02:54:06;93723.69;;;9.34;100.00
13314;BME280;6725;48.112;11.604;2023-05-11T02:56:35;93728.28;;;9.37;100.00
13314;BME280;6725;48.112;11.604;2023-05-11T02:59:01;93727.94;;;9.35;100.00
13314;BME280;6725;48.112;11.604;2023-05-11T03:01:27;93724.47;;;9.34;100.00
13314;BME280;6725;48.112;11.604;2023-05-11T03:03:53;93727.28;;;9.31;100.00
13314;BME280;6725;48.112;11.604;2023-05-11T03:06:18;93721.75;;;9.34;100.00
13314;BME280;6725;48.112;11.604;2023-05-11T03:08:44;93718.03;;;9.28;100.00
13314;BME280;6725;48.112;11.604;2023-05-11T03:11:10;93726.53;;;9.30;100.00
13314;BME280;6725;48.112;11.604;2023-05-11T03:13:39;93722.59;;;9.31;100.00
13314;BME280;6725;48.112;11.604;2023-05-11T03:16:06;93726.53;;;9.30;100.00
13314;BME280;6725;48.112;11.604;2023-05-11T03:18:33;93724.56;;;9.18;100.00
13314;BME280;6725;48.112;11.604;2023-05-11T03:21:00;93727.28;;;9.18;100.00
13314;BME280;6725;48.112;11.604;2023-05-11T03:23:27;93726.09;;;9.19;100.00
13314;BME280;6725;48.112;11.604;2023-05-11T03:25:53;93723.69;;;9.21;100.00
13314;BME280;6725;48.112;11.604;2023-05-11T03:28:21;93724.25;;;9.16;100.00
13314;BME280;6725;48.112;11.604;2023-05-11T03:30:48;93723.91;;;9.14;100.00
13314;BME280;6725;48.112;11.604;2023-05-11T03:33:15;93719.97;;;9.15;100.00
13314;BME280;6725;48.112;11.604;2023-05-11T03:35:42;93723.69;;;9.09;100.00
13314;BME280;6725;48.112;11.604;2023-05-11T03:38:09;93716.59;;;9.11;100.00
13314;BME280;6725;48.112;11.604;2023-05-11T03:40:36;93714.63;;;9.12;100.00
13314;BME280;6725;48.112;11.604;2023-05-11T03:43:02;93719.53;;;9.04;100.00
13314;BME280;6725;48.112;11.604;2023-05-11T03:45:29;93714.06;;;9.04;100.00
13314;BME280;6725;48.112;11.604;2023-05-11T03:47:56;93717.47;;;9.08;100.00
13314;BME280;6725;48.112;11.604;2023-05-11T03:50:22;93715.94;;;9.07;100.00
13314;BME280;6725;48.112;11.604;2023-05-11T03:52:48;93724.31;;;9.00;100.00
13314;BME280;6725;48.112;11.604;2023-05-11T03:55:13;93716.47;;;9.02;100.00
13314;BME280;6725;48.112;11.604;2023-05-11T03:57:40;93712.13;;;9.05;100.00
13314;BME280;6725;48.112;11.604;2023-05-11T04:00:06;93716.91;;;9.01;100.00
13314;BME280;6725;48.112;11.604;2023-05-11T04:02:33;93705.91;;;9.04;100.00
13314;BME280;6725;48.112;11.604;2023-05-11T04:04:59;93708.63;;;9.04;100.00
13314;BME280;6725;48.112;11.604;2023-05-11T04:07:24;93707.13;;;9.03;100.00
13314;BME280;6725;48.112;11.604;2023-05-11T04:09:50;93703.19;;;9.04;100.00
13314;BME280;6725;48.112;11.604;2023-05-11T04:12:17;93706.25;;;9.06;100.00
13314;BME280;6725;48.112;11.604;2023-05-11T04:14:43;93706.91;;;9.10;100.00
13314;BME280;6725;48.112;11.604;2023-05-11T04:17:08;93707.03;;;9.07;100.00
13314;BME280;6725;48.112;11.604;2023-05-11T04:19:34;93701.66;;;9.03;100.00
13314;BME280;6725;48.112;11.604;2023-05-11T04:21:59;93707.31;;;8.96;100.00
13314;BME280;6725;48.112;11.604;2023-05-11T04:24:25;93704.09;;;9.01;100.00
13314;BME280;6725;48.112;11.604;2023-05-11T04:26:55;93714.19;;;9.01;100.00
13314;BME280;6725;48.112;11.604;2023-05-11T04:29:20;93707.47;;;9.05;100.00
13314;BME280;6725;48.112;11.604;2023-05-11T04:31:45;93710.69;;;9.00;100.00
13314;BME280;6725;48.112;11.604;2023-05-11T04:34:11;93716.81;;;9.04;100.00
13314;BME280;6725;48.112;11.604;2023-05-11T04:36:36;93711.69;;;9.06;100.00
13314;BME280;6725;48.112;11.604;2023-05-11T04:39:01;93718.56;;;9.11;100.00
13314;BME280;6725;48.112;11.604;2023-05-11T04:41:28;93715.84;;;9.23;100.00
13314;BME280;6725;48.112;11.604;2023-05-11T04:43:54;93723.03;;;9.17;100.00
13314;BME280;6725;48.112;11.604;2023-05-11T04:46:19;93717.47;;;9.21;100.00
13314;BME280;6725;48.112;11.604;2023-05-11T04:48:44;93714.00;;;9.20;100.00
13314;BME280;6725;48.112;11.604;2023-05-11T04:51:10;93722.47;;;9.22;100.00
13314;BME280;6725;48.112;11.604;2023-05-11T04:53:35;93723.38;;;9.19;100.00
13314;BME280;6725;48.112;11.604;2023-05-11T04:56:01;93720.31;;;9.17;100.00
13314;BME280;6725;48.112;11.604;2023-05-11T04:58:26;93727.63;;;9.20;100.00
13314;BME280;6725;48.112;11.604;2023-05-11T05:00:52;93725.41;;;9.15;100.00
13314;BME280;6725;48.112;11.604;2023-05-11T05:03:17;93731.31;;;9.14;100.00
13314;BME280;6725;48.112;11.604;2023-05-11T05:05:42;93724.88;;;9.20;100.00
13314;BME280;6725;48.112;11.604;2023-05-11T05:08:08;93727.63;;;9.20;100.00
13314;BME280;6725;48.112;11.604;2023-05-11T05:10:33;93723.69;;;9.21;100.00
13314;BME280;6725;48.112;11.604;2023-05-11T05:12:58;93722.38;;;9.26;100.00
13314;BME280;6725;48.112;11.604;2023-05-11T05:15:24;93721.84;;;9.31;100.00
13314;BME280;6725;48.112;11.604;2023-05-11T05:17:49;93728.47;;;9.17;100.00
13314;BME280;6725;48.112;11.604;2023-05-11T05:20:15;93721.81;;;9.18;100.00
13314;BME280;6725;48.112;11.604;2023-05-11T05:22:40;93723.69;;;9.21;100.00
13314;BME280;6725;48.112;11.604;2023-05-11T05:25:07;93724.47;;;9.22;100.00
13314;BME280;6725;48.112;11.604;2023-05-11T05:27:32;93711.94;;;9.24;100.00
13314;BME280;6725;48.112;11.604;2023-05-11T05:29:57;93723.03;;;9.17;100.00
13314;BME280;6725;48.112;11.604;2023-05-11T05:32:23;93718.34;;;9.18;100.00
13314;BME280;6725;48.112;11.604;2023-05-11T05:34:48;93724.97;;;9.17;100.00
13314;BME280;6725;48.112;11.604;2023-05-11T05:37:14;93726.19;;;9.16;100.00
13314;BME280;6725;48.112;11.604;2023-05-11T05:39:39;93723.03;;;9.17;100.00
13314;BME280;6725;48.112;11.604;2023-05-11T05:42:04;93727.47;;;9.11;100.00
13314;BME280;6725;48.112;11.604;2023-05-11T05:44:30;93724.47;;;9.22;100.00
13314;BME280;6725;48.112;11.604;2023-05-11T05:46:55;93717.69;;;9.26;100.00
13314;BME280;6725;48.112;11.604;2023-05-11T05:49:21;93727.19;;;9.22;100.00
13314;BME280;6725;48.112;11.604;2023-05-11T05:51:46;93727.63;;;9.20;100.00
13314;BME280;6725;48.112;11.604;2023-05-11T05:54:11;93723.03;;;9.17;100.00
13314;BME280;6725;48.112;11.604;2023-05-11T05:56:37;93729.13;;;9.21;100.00
13314;BME280;6725;48.112;11.604;2023-05-11T05:59:05;93732.41;;;9.16;100.00
13314;BME280;6725;48.112;11.604;2023-05-11T06:01:30;93735.66;;;9.11;100.00
13314;BME280;6725;48.112;11.604;2023-05-11T06:03:55;93734.47;;;9.12;100.00
13314;BME280;6725;48.112;11.604;2023-05-11T06:06:21;93731.63;;;9.16;100.00
13314;BME280;6725;48.112;11.604;2023-05-11T06:08:46;93727.16;;;9.09;100.00
13314;BME280;6725;48.112;11.604;2023-05-11T06:11:12;93740.34;;;9.11;100.00
13314;BME280;6725;48.112;11.604;2023-05-11T06:13:37;93738.72;;;9.13;100.00
13314;BME280;6725;48.112;11.604;2023-05-11T06:16:02;93737.09;;;9.16;100.00
13314;BME280;6725;48.112;11.604;2023-05-11T06:18:28;93734.69;;;9.18;100.00
13314;BME280;6725;48.112;11.604;2023-05-11T06:20:53;93736.09;;;9.22;100.00
13314;BME280;6725;48.112;11.604;2023-05-11T06:23:19;93751.25;;;9.23;100.00
13314;BME280;6725;48.112;11.604;2023-05-11T06:25:44;93738.38;;;9.24;100.00
13314;BME280;6725;48.112;11.604;2023-05-11T06:28:09;93743.94;;;9.20;100.00
13314;BME280;6725;48.112;11.604;2023-05-11T06:30:35;93748.41;;;9.14;100.00
13314;BME280;6725;48.112;11.604;2023-05-11T06:33:00;93752.44;;;9.22;100.00
13314;BME280;6725;48.112;11.604;2023-05-11T06:35:26;93751.91;;;9.27;100.00
13314;BME280;6725;48.112;11.604;2023-05-11T06:37:51;93753.78;;;9.30;100.00
13314;BME280;6725;48.112;11.604;2023-05-11T06:40:17;93757.69;;;9.29;100.00
13314;BME280;6725;48.112;11.604;2023-05-11T06:42:42;93754.53;;;9.31;100.00
13314;BME280;6725;48.112;11.604;2023-05-11T06:45:08;93763.13;;;9.29;100.00
13314;BME280;6725;48.112;11.604;2023-05-11T06:47:34;93760.84;;;9.28;100.00
13314;BME280;6725;48.112;11.604;2023-05-11T06:49:59;93772.28;;;9.23;100.00
13314;BME280;6725;48.112;11.604;2023-05-11T06:52:25;93762.91;;;9.36;100.00
13314;BME280;6725;48.112;11.604;2023-05-11T06:54:50;93769.44;;;9.26;100.00
13314;BME280;6725;48.112;11.604;2023-05-11T06:57:15;93779.66;;;9.22;100.00
13314;BME280;6725;48.112;11.604;2023-05-11T06:59:41;93774.78;;;9.30;100.00
13314;BME280;6725;48.112;11.604;2023-05-11T07:02:06;93779.81;;;9.31;100.00
13314;BME280;6725;48.112;11.604;2023-05-11T07:04:31;93784.91;;;9.29;100.00
13314;BME280;6725;48.112;11.604;2023-05-11T07:06:57;93781.66;;;9.34;100.00
13314;BME280;6725;48.112;11.604;2023-05-11T07:09:22;93782.41;;;9.35;100.00
13314;BME280;6725;48.112;11.604;2023-05-11T07:11:47;93785.47;;;9.37;100.00
13314;BME280;6725;48.112;11.604;2023-05-11T07:14:14;93788.19;;;9.37;100.00
13314;BME280;6725;48.112;11.604;2023-05-11T07:16:39;93786.78;;;9.45;100.00
13314;BME280;6725;48.112;11.604;2023-05-11T07:19:05;93779.69;;;9.47;100.00
13314;BME280;6725;48.112;11.604;2023-05-11T07:21:33;93787.56;;;9.45;100.00
13314;BME280;6725;48.112;11.604;2023-05-11T07:23:58;93788.00;;;9.44;100.00
13314;BME280;6725;48.112;11.604;2023-05-11T07:26:24;93797.13;;;9.37;100.00
13314;BME280;6725;48.112;11.604;2023-05-11T07:28:49;93795.94;;;9.38;100.00
13314;BME280;6725;48.112;11.604;2023-05-11T07:31:14;93788.94;;;9.37;100.00
13314;BME280;6725;48.112;11.604;2023-05-11T07:33:40;93792.03;;;9.52;100.00
13314;BME280;6725;48.112;11.604;2023-05-11T07:36:06;93796.03;;;9.47;100.00
13314;BME280;6725;48.112;11.604;2023-05-11T07:38:31;93792.91;;;9.61;100.00
13314;BME280;6725;48.112;11.604;2023-05-11T07:40:57;93787.88;;;9.72;100.00
13314;BME280;6725;48.112;11.604;2023-05-11T07:43:22;93802.06;;;9.67;100.00
13314;BME280;6725;48.112;11.604;2023-05-11T07:45:47;93805.53;;;9.68;100.00
13314;BME280;6725;48.112;11.604;2023-05-11T07:48:12;93802.72;;;9.84;100.00
13314;BME280;6725;48.112;11.604;2023-05-11T07:50:38;93807.91;;;10.03;100.00
13314;BME280;6725;48.112;11.604;2023-05-11T07:53:03;93813.72;;;10.05;100.00
13314;BME280;6725;48.112;11.604;2023-05-11T07:55:31;93814.94;;;10.17;100.00
13314;BME280;6725;48.112;11.604;2023-05-11T07:57:57;93815.69;;;10.18;100.00
13314;BME280;6725;48.112;11.604;2023-05-11T08:00:22;93811.63;;;10.22;100.00
13314;BME280;6725;48.112;11.604;2023-05-11T08:02:48;93815.91;;;10.10;100.00
13314;BME280;6725;48.112;11.604;2023-05-11T08:05:13;93822.69;;;10.19;100.00
13314;BME280;6725;48.112;11.604;2023-05-11T08:07:38;93838.38;;;10.14;100.00
13314;BME280;6725;48.112;11.604;2023-05-11T08:10:04;93835.09;;;10.20;100.00
13314;BME280;6725;48.112;11.604;2023-05-11T08:12:30;93849.28;;;10.14;100.00
13314;BME280;6725;48.112;11.604;2023-05-11T08:14:55;93855.63;;;10.12;100.00
13314;BME280;6725;48.112;11.604;2023-05-11T08:17:20;93859.31;;;10.18;100.00
13314;BME280;6725;48.112;11.604;2023-05-11T08:19:46;93867.63;;;10.27;100.00
13314;BME280;6725;48.112;11.604;2023-05-11T08:22:11;93864.66;;;10.46;100.00
13314;BME280;6725;48.112;11.604;2023-05-11T08:24:37;93862.88;;;10.52;100.00
13314;BME280;6725;48.112;11.604;2023-05-11T08:27:02;93870.63;;;10.54;100.00
13314;BME280;6725;48.112;11.604;2023-05-11T08:29:29;93880.03;;;10.53;100.00
13314;BME280;6725;48.112;11.604;2023-05-11T08:31:54;93888.84;;;10.57;100.00
13314;BME280;6725;48.112;11.604;2023-05-11T08:34:20;93905.38;;;10.41;100.00
13314;BME280;6725;48.112;11.604;2023-05-11T08:36:46;93909.94;;;10.44;100.00
13314;BME280;6725;48.112;11.604;2023-05-11T08:39:11;93912.66;;;10.44;100.00
13314;BME280;6725;48.112;11.604;2023-05-11T08:41:37;93927.50;;;10.55;100.00
13314;BME280;6725;48.112;11.604;2023-05-11T08:44:02;93938.78;;;10.45;100.00
13314;BME280;6725;48.112;11.604;2023-05-11T08:46:29;93937.75;;;10.64;100.00
13314;BME280;6725;48.112;11.604;2023-05-11T08:48:56;93950.31;;;10.74;100.00
13314;BME280;6725;48.112;11.604;2023-05-11T08:51:22;93956.41;;;10.78;100.00
13314;BME280;6725;48.112;11.604;2023-05-11T08:53:48;93990.06;;;10.75;100.00
13314;BME280;6725;48.112;11.604;2023-05-11T08:56:14;94003.72;;;10.75;100.00
13314;BME280;6725;48.112;11.604;2023-05-11T08:58:41;94021.28;;;10.86;100.00
13314;BME280;6725;48.112;11.604;2023-05-11T09:01:09;94067.03;;;10.82;100.00
13314;BME280;6725;48.112;11.604;2023-05-11T09:03:35;94066.94;;;11.11;100.00
13314;BME280;6725;48.112;11.604;2023-05-11T09:06:02;94068.63;;;11.42;100.00
13314;BME280;6725;48.112;11.604;2023-05-11T09:08:30;94084.59;;;11.44;100.00
13314;BME280;6725;48.112;11.604;2023-05-11T09:10:56;94125.72;;;11.28;100.00
13314;BME280;6725;48.112;11.604;2023-05-11T09:13:22;94135.78;;;11.31;100.00
13314;BME280;6725;48.112;11.604;2023-05-11T09:15:48;94158.19;;;11.26;100.00
13314;BME280;6725;48.112;11.604;2023-05-11T09:18:13;94155.25;;;11.33;100.00
13314;BME280;6725;48.112;11.604;2023-05-11T09:20:42;94164.88;;;11.25;100.00
13314;BME280;6725;48.112;11.604;2023-05-11T09:23:07;94175.47;;;11.23;100.00
13314;BME280;6725;48.112;11.604;2023-05-11T09:25:33;94188.69;;;11.12;100.00
13314;BME280;6725;48.112;11.604;2023-05-11T09:27:59;94193.81;;;11.35;100.00
13314;BME280;6725;48.112;11.604;2023-05-11T09:30:25;94164.19;;;11.46;100.00
13314;BME280;6725;48.112;11.604;2023-05-11T09:32:57;94181.03;;;11.32;100.00
13314;BME280;6725;48.112;11.604;2023-05-11T09:38:01;94189.56;;;11.34;100.00
13314;BME280;6725;48.112;11.604;2023-05-11T09:40:28;94179.72;;;11.49;100.00
13314;BME280;6725;48.112;11.604;2023-05-11T09:42:53;94173.38;;;11.52;100.00
13314;BME280;6725;48.112;11.604;2023-05-11T09:45:45;94172.59;;;11.51;100.00
13314;BME280;6725;48.112;11.604;2023-05-11T09:50:49;94171.31;;;11.43;100.00
13314;BME280;6725;48.112;11.604;2023-05-11T09:53:15;94180.28;;;11.44;100.00
13314;BME280;6725;48.112;11.604;2023-05-11T09:55:52;94171.50;;;11.49;100.00
13314;BME280;6725;48.112;11.604;2023-05-11T09:58:18;94188.03;;;11.33;100.00
13314;BME280;6725;48.112;11.604;2023-05-11T10:00:50;94201.38;;;11.31;100.00
13314;BME280;6725;48.112;11.604;2023-05-11T10:03:16;94223.66;;;11.17;100.00
13314;BME280;6725;48.112;11.604;2023-05-11T10:05:58;94247.06;;;11.18;100.00
13314;BME280;6725;48.112;11.604;2023-05-11T10:08:28;94229.03;;;11.33;100.00
13314;BME280;6725;48.112;11.604;2023-05-11T10:11:03;94224.22;;;11.37;100.00
13314;BME280;6725;48.112;11.604;2023-05-11T10:13:31;94228.06;;;11.39;100.00
13314;BME280;6725;48.112;11.604;2023-05-11T10:15:57;94222.69;;;11.36;100.00
13314;BME280;6725;48.112;11.604;2023-05-11T10:18:23;94229.03;;;11.33;100.00
13314;BME280;6725;48.112;11.604;2023-05-11T10:20:49;94229.56;;;11.28;100.00
13314;BME280;6725;48.112;11.604;2023-05-11T10:23:17;94226.16;;;11.24;100.00
13314;BME280;6725;48.112;11.604;2023-05-11T10:25:44;94221.78;;;11.26;100.00
13314;BME280;6725;48.112;11.604;2023-05-11T10:28:09;94230.13;;;11.23;100.00
13314;BME280;6725;48.112;11.604;2023-05-11T10:30:35;94227.38;;;11.23;100.00
13314;BME280;6725;48.112;11.604;2023-05-11T10:33:01;94226.16;;;11.24;100.00
13314;BME280;6725;48.112;11.604;2023-05-11T10:35:27;94227.16;;;11.30;100.00
13314;BME280;6725;48.112;11.604;2023-05-11T10:37:53;94223.56;;;11.33;100.00
13314;BME280;6725;48.112;11.604;2023-05-11T10:40:19;94216.13;;;11.33;100.00
13314;BME280;6725;48.112;11.604;2023-05-11T10:45:25;94221.03;;;11.26;100.00
13314;BME280;6725;48.112;11.604;2023-05-11T10:50:59;94210.00;;;11.29;100.00
13314;BME280;6725;48.112;11.604;2023-05-11T11:02:11;94185.09;;;11.40;100.00
13314;BME280;6725;48.112;11.604;2023-05-11T11:04:42;94195.91;;;11.31;100.00
13314;BME280;6725;48.112;11.604;2023-05-11T11:07:08;94179.84;;;11.45;100.00
13314;BME280;6725;48.112;11.604;2023-05-11T11:09:49;94183.09;;;11.40;100.00
13314;BME280;6725;48.112;11.604;2023-05-11T11:12:15;94179.06;;;11.45;100.00
13314;BME280;6725;48.112;11.604;2023-05-11T11:17:22;94169.78;;;11.67;100.00
13314;BME280;6725;48.112;11.604;2023-05-11T11:19:48;94154.13;;;11.68;100.00
13314;BME280;6725;48.112;11.604;2023-05-11T11:30:19;94150.22;;;11.69;100.00
13314;BME280;6725;48.112;11.604;2023-05-11T11:32:50;94134.44;;;11.73;100.00
13314;BME280;6725;48.112;11.604;2023-05-11T11:38:05;94150.22;;;11.69;100.00
13314;BME280;6725;48.112;11.604;2023-05-11T11:40:34;94146.91;;;11.74;100.00
13314;BME280;6725;48.112;11.604;2023-05-11T11:43:15;94155.22;;;11.58;100.00
13314;BME280;6725;48.112;11.604;2023-05-11T11:46:00;94152.59;;;11.67;100.00
13314;BME280;6725;48.112;11.604;2023-05-11T11:48:38;94152.28;;;11.65;100.00
13314;BME280;6725;48.112;11.604;2023-05-11T12:01:25;94112.63;;;11.82;100.00
13314;BME280;6725;48.112;11.604;2023-05-11T12:06:56;94081.69;;;11.85;100.00
13314;BME280;6725;48.112;11.604;2023-05-11T12:09:25;94080.69;;;11.79;100.00
13314;BME280;6725;48.112;11.604;2023-05-11T12:11:51;94082.78;;;11.75;100.00
13314;BME280;6725;48.112;11.604;2023-05-11T12:14:18;94087.41;;;11.65;100.00
13314;BME280;6725;48.112;11.604;2023-05-11T12:17:02;94101.41;;;11.55;100.00
13314;BME280;6725;48.112;11.604;2023-05-11T12:19:27;94096.19;;;11.48;100.00
13314;BME280;6725;48.112;11.604;2023-05-11T12:21:53;94100.34;;;11.40;100.00
13314;BME280;6725;48.112;11.604;2023-05-11T12:24:18;94102.44;;;11.36;100.00
13314;BME280;6725;48.112;11.604;2023-05-11T12:26:44;94093.69;;;11.41;100.00
13314;BME280;6725;48.112;11.604;2023-05-11T12:29:11;94091.03;;;11.37;100.00
13314;BME280;6725;48.112;11.604;2023-05-11T12:31:38;94099.03;;;11.32;100.00
13314;BME280;6725;48.112;11.604;2023-05-11T12:34:04;94093.34;;;11.39;100.00
13314;BME280;6725;48.112;11.604;2023-05-11T12:36:29;94079.78;;;11.48;100.00
13314;BME280;6725;48.112;11.604;2023-05-11T12:38:56;94069.50;;;11.52;100.00
13314;BME280;6725;48.112;11.604;2023-05-11T12:41:22;94064.56;;;11.59;100.00
13314;BME280;6725;48.112;11.604;2023-05-11T12:43:52;94069.16;;;11.50;100.00
13314;BME280;6725;48.112;11.604;2023-05-11T12:46:19;94067.84;;;11.54;100.00
13314;BME280;6725;48.112;11.604;2023-05-11T12:48:46;94069.72;;;11.45;100.00
13314;BME280;6725;48.112;11.604;2023-05-11T12:51:11;94064.66;;;11.56;100.00
13314;BME280;6725;48.112;11.604;2023-05-11T12:53:38;94059.09;;;11.59;100.00
13314;BME280;6725;48.112;11.604;2023-05-11T12:56:03;94050.00;;;11.62;100.00
13314;BME280;6725;48.112;11.604;2023-05-11T12:58:36;94055.69;;;11.68;100.00
13314;BME280;6725;48.112;11.604;2023-05-11T13:01:03;94049.03;;;11.69;100.00
13314;BME280;6725;48.112;11.604;2023-05-11T13:03:31;94060.50;;;11.64;100.00
13314;BME280;6725;48.112;11.604;2023-05-11T13:08:37;94037.06;;;11.75;100.00
13314;BME280;6725;48.112;11.604;2023-05-11T13:11:18;94040.69;;;11.60;100.00
13314;BME280;6725;48.112;11.604;2023-05-11T13:13:45;94032.63;;;11.69;100.00
13314;BME280;6725;48.112;11.604;2023-05-11T13:16:11;94041.72;;;11.66;100.00
13314;BME280;6725;48.112;11.604;2023-05-11T13:18:36;94042.69;;;11.59;100.00
13314;BME280;6725;48.112;11.604;2023-05-11T13:21:06;94030.34;;;11.55;100.00
13314;BME280;6725;48.112;11.604;2023-05-11T13:23:31;94034.94;;;11.58;100.00
13314;BME280;6725;48.112;11.604;2023-05-11T13:25:57;94038.34;;;11.49;100.00
13314;BME280;6725;48.112;11.604;2023-05-11T13:28:23;94030.25;;;11.46;100.00
13314;BME280;6725;48.112;11.604;2023-05-11T13:30:49;94029.28;;;11.40;100.00
13314;BME280;6725;48.112;11.604;2023-05-11T13:33:15;94031.81;;;11.34;100.00
13314;BME280;6725;48.112;11.604;2023-05-11T13:35:41;94034.44;;;11.25;100.00
13314;BME280;6725;48.112;11.604;2023-05-11T13:38:10;94021.88;;;11.28;100.00
13314;BME280;6725;48.112;11.604;2023-05-11T13:40:36;94019.13;;;11.28;100.00
13314;BME280;6725;48.112;11.604;2023-05-11T13:43:02;94019.94;;;11.16;100.00
13314;BME280;6725;48.112;11.604;2023-05-11T13:45:27;94005.59;;;11.24;100.00
13314;BME280;6725;48.112;11.604;2023-05-11T13:47:53;94009.66;;;11.20;100.00
13314;BME280;6725;48.112;11.604;2023-05-11T13:50:23;94003.53;;;11.16;100.00